createdAt,value
2024-01-19T00:01:19.472Z,-0.17
2024-01-19T00:03:59.292Z,-0.29
2024-01-19T00:06:38.601Z,-0.42
2024-01-19T00:09:23.414Z,-0.50
2024-01-19T00:12:02.762Z,-0.54
2024-01-19T00:14:42.688Z,-0.58
2024-01-19T00:17:21.998Z,-0.62
2024-01-19T00:20:01.409Z,-0.64
2024-01-19T00:22:40.704Z,-0.68
2024-01-19T00:25:25.395Z,-0.71
2024-01-19T00:28:04.659Z,-0.72
2024-01-19T00:30:43.926Z,-0.77
2024-01-19T00:33:23.253Z,-0.81
2024-01-19T00:36:02.806Z,-0.85
2024-01-19T00:38:42.178Z,-0.89
2024-01-19T00:41:28.599Z,-0.96
2024-01-19T00:44:07.910Z,-0.99
2024-01-19T00:46:47.303Z,-1.00
2024-01-19T00:49:26.663Z,-1.03
2024-01-19T00:52:05.981Z,-1.04
2024-01-19T00:54:45.480Z,-1.12
2024-01-19T00:57:29.900Z,-1.16
2024-01-19T01:00:09.247Z,-1.20
2024-01-19T01:02:48.531Z,-1.18
2024-01-19T01:05:28.025Z,-1.18
2024-01-19T01:08:08.063Z,-1.20
2024-01-19T01:10:47.667Z,-1.22
2024-01-19T01:13:32.152Z,-1.23
2024-01-19T01:16:11.786Z,-1.27
2024-01-19T01:18:51.155Z,-1.24
2024-01-19T01:21:30.450Z,-1.23
2024-01-19T01:24:09.784Z,-1.25
2024-01-19T01:26:49.166Z,-1.30
2024-01-19T01:29:33.616Z,-1.32
2024-01-19T01:32:13.629Z,-1.33
2024-01-19T01:34:52.977Z,-1.34
2024-01-19T01:37:32.268Z,-1.32
2024-01-19T01:40:13.223Z,-1.31
2024-01-19T01:42:52.791Z,-1.28
2024-01-19T01:45:37.556Z,-1.20
2024-01-19T01:48:17.084Z,-1.16
2024-01-19T01:50:57.276Z,-1.11
2024-01-19T01:53:36.719Z,-1.09
2024-01-19T01:56:16.387Z,-1.08
2024-01-19T01:58:55.726Z,-1.08
2024-01-19T02:01:40.884Z,-1.08
2024-01-19T02:04:21.035Z,-1.05
2024-01-19T02:07:00.844Z,-0.95
2024-01-19T02:09:41.385Z,-0.94
2024-01-19T02:12:20.962Z,-1.04
2024-01-19T02:15:00.301Z,-1.14
2024-01-19T02:17:44.964Z,-1.20
2024-01-19T02:20:24.448Z,-1.23
2024-01-19T02:23:03.934Z,-1.25
2024-01-19T02:25:48.569Z,-1.23
2024-01-19T02:28:29.225Z,-1.21
2024-01-19T02:31:08.496Z,-1.16
2024-01-19T02:33:47.791Z,-1.14
2024-01-19T02:36:27.195Z,-1.10
2024-01-19T02:39:07.556Z,-1.04
2024-01-19T02:41:52.143Z,-1.02
2024-01-19T02:44:31.506Z,-0.97
2024-01-19T02:47:10.989Z,-0.92
2024-01-19T02:49:50.342Z,-0.92
2024-01-19T02:52:29.756Z,-0.92
2024-01-19T02:55:09.576Z,-0.92
2024-01-19T02:57:53.919Z,-0.93
2024-01-19T03:00:33.341Z,-0.97
2024-01-19T03:03:13.222Z,-0.94
2024-01-19T03:05:52.560Z,-0.88
2024-01-19T03:08:32.159Z,-0.82
2024-01-19T03:11:11.670Z,-0.76
2024-01-19T03:13:56.282Z,-0.73
2024-01-19T03:16:35.699Z,-0.72
2024-01-19T03:19:15.007Z,-0.74
2024-01-19T03:21:54.357Z,-0.80
2024-01-19T03:24:33.741Z,-0.88
2024-01-19T03:27:13.339Z,-0.95
2024-01-19T03:29:57.940Z,-1.00
2024-01-19T03:32:37.316Z,-1.02
2024-01-19T03:35:16.951Z,-1.03
2024-01-19T03:37:56.257Z,-1.07
2024-01-19T03:40:35.556Z,-1.06
2024-01-19T03:43:15.669Z,-1.01
2024-01-19T03:45:59.981Z,-0.96
2024-01-19T03:48:42.621Z,-0.92
2024-01-19T03:51:21.981Z,-0.89
2024-01-19T03:54:01.329Z,-0.85
2024-01-19T03:56:40.697Z,-0.78
2024-01-19T03:59:20.364Z,-0.70
2024-01-19T04:02:07.294Z,-0.58
2024-01-19T04:04:46.736Z,-0.50
2024-01-19T04:07:26.181Z,-0.40
2024-01-19T04:10:06.316Z,-0.32
2024-01-19T04:12:45.638Z,-0.29
2024-01-19T04:15:24.926Z,-0.28
2024-01-19T04:18:09.531Z,-0.28
2024-01-19T04:20:48.972Z,-0.25
2024-01-19T04:23:28.334Z,-0.24
2024-01-19T04:26:07.881Z,-0.22
2024-01-19T04:28:47.289Z,-0.21
2024-01-19T04:31:26.560Z,-0.24
2024-01-19T04:34:11.296Z,-0.24
2024-01-19T04:36:50.643Z,-0.23
2024-01-19T04:39:29.940Z,-0.11
2024-01-19T04:42:10.220Z,-0.03
2024-01-19T04:44:49.541Z,0.00
2024-01-19T04:47:29.096Z,-0.03
2024-01-19T04:50:14.920Z,-0.09
2024-01-19T04:52:54.213Z,-0.15
2024-01-19T04:55:33.513Z,-0.18
2024-01-19T04:58:12.875Z,-0.19
2024-01-19T05:00:52.200Z,-0.23
2024-01-19T05:03:31.540Z,-0.28
2024-01-19T05:06:16.186Z,-0.27
2024-01-19T05:08:55.579Z,-0.23
2024-01-19T05:11:34.994Z,-0.23
2024-01-19T05:14:14.393Z,-0.24
2024-01-19T05:16:53.685Z,-0.26
2024-01-19T05:19:33.039Z,-0.25
2024-01-19T05:22:17.513Z,-0.22
2024-01-19T05:24:57.833Z,-0.18
2024-01-19T05:27:37.159Z,-0.15
2024-01-19T05:30:17.907Z,-0.13
2024-01-19T05:32:57.435Z,-0.10
2024-01-19T05:35:36.934Z,-0.12
2024-01-19T05:38:21.305Z,-0.21
2024-01-19T05:41:00.657Z,-0.28
2024-01-19T05:43:41.219Z,-0.32
2024-01-19T05:46:20.670Z,-0.39
2024-01-19T05:49:00.087Z,-0.44
2024-01-19T05:51:39.621Z,-0.51
2024-01-19T05:54:23.998Z,-0.54
2024-01-19T05:57:03.391Z,-0.56
2024-01-19T05:59:43.126Z,-0.57
2024-01-19T06:02:22.753Z,-0.53
2024-01-19T06:05:02.140Z,-0.53
2024-01-19T06:07:41.714Z,-0.51
2024-01-19T06:10:26.765Z,-0.46
2024-01-19T06:13:06.142Z,-0.45
2024-01-19T06:15:45.522Z,-0.46
2024-01-19T06:18:25.215Z,-0.47
2024-01-19T06:21:05.226Z,-0.48
2024-01-19T06:23:45.416Z,-0.47
2024-01-19T06:26:34.614Z,-0.45
2024-01-19T06:29:14.014Z,-0.34
2024-01-19T06:31:54.358Z,-0.29
2024-01-19T06:34:33.797Z,-0.30
2024-01-19T06:37:13.161Z,-0.27
2024-01-19T06:39:54.163Z,-0.23
2024-01-19T06:42:38.660Z,-0.19
2024-01-19T06:45:19.004Z,-0.29
2024-01-19T06:47:58.409Z,-0.42
2024-01-19T06:50:37.803Z,-0.64
2024-01-19T06:53:17.104Z,-0.68
2024-01-19T06:55:56.624Z,-0.72
2024-01-19T06:58:52.900Z,-0.79
2024-01-19T07:01:32.191Z,-0.84
2024-01-19T07:04:11.978Z,-0.88
2024-01-19T07:06:51.414Z,-0.91
2024-01-19T07:09:31.465Z,-0.96
2024-01-19T07:12:11.443Z,-1.02
2024-01-19T07:14:55.899Z,-1.05
2024-01-19T07:17:35.327Z,-1.08
2024-01-19T07:20:16.396Z,-1.11
2024-01-19T07:22:55.753Z,-1.13
2024-01-19T07:25:35.576Z,-1.13
2024-01-19T07:28:14.887Z,-1.12
2024-01-19T07:30:59.368Z,-1.12
2024-01-19T07:33:38.803Z,-1.14
2024-01-19T07:36:20.919Z,-1.18
2024-01-19T07:39:00.622Z,-1.20
2024-01-19T07:41:40.099Z,-1.21
2024-01-19T07:44:19.565Z,-1.22
2024-01-19T07:47:04.034Z,-1.20
2024-01-19T07:49:43.404Z,-1.21
2024-01-19T07:52:22.776Z,-1.24
2024-01-19T07:55:02.146Z,-1.24
2024-01-19T07:57:41.480Z,-1.24
2024-01-19T08:00:21.790Z,-1.29
2024-01-19T08:03:06.924Z,-1.31
2024-01-19T08:05:46.408Z,-1.34
2024-01-19T08:08:25.738Z,-1.35
2024-01-19T08:11:05.067Z,-1.41
2024-01-19T08:13:44.358Z,-1.47
2024-01-19T08:16:23.714Z,-1.52
2024-01-19T08:19:08.377Z,-1.55
2024-01-19T08:21:50.628Z,-1.57
2024-01-19T08:24:29.901Z,-1.65
2024-01-19T08:27:10.245Z,-1.78
2024-01-19T08:29:49.583Z,-1.84
2024-01-19T08:32:31.205Z,-1.88
2024-01-19T08:35:15.861Z,-1.93
2024-01-19T08:37:55.192Z,-1.94
2024-01-19T08:40:34.524Z,-1.94
2024-01-19T08:43:13.839Z,-2.05
2024-01-19T08:45:53.424Z,-2.13
2024-01-19T08:48:32.872Z,-2.28
2024-01-19T08:51:17.415Z,-2.34
2024-01-19T08:53:56.882Z,-2.35
2024-01-19T08:56:40.866Z,-2.35
2024-01-19T08:59:25.593Z,-2.37
2024-01-19T09:02:04.913Z,-2.35
2024-01-19T09:04:44.479Z,-2.40
2024-01-19T09:07:28.967Z,-2.41
2024-01-19T09:10:08.363Z,-2.37
2024-01-19T09:12:47.675Z,-2.32
2024-01-19T09:15:27.008Z,-2.23
2024-01-19T09:18:06.358Z,-2.14
2024-01-19T09:20:45.775Z,-2.01
2024-01-19T09:23:30.192Z,-1.87
2024-01-19T09:26:09.476Z,-1.78
2024-01-19T09:28:48.781Z,-1.68
2024-01-19T09:31:28.232Z,-1.55
2024-01-19T09:34:07.634Z,-1.43
2024-01-19T09:36:47.809Z,-1.39
2024-01-19T09:39:32.196Z,-1.34
2024-01-19T09:42:15.736Z,-1.27
2024-01-19T09:45:09.947Z,-1.09
2024-01-19T09:48:05.038Z,-0.91
2024-01-19T09:50:45.043Z,-0.71
2024-01-19T09:53:30.280Z,-0.58
2024-01-19T09:56:14.759Z,-0.42
2024-01-19T09:58:58.318Z,1.36
2024-01-19T10:01:38.722Z,3.59
2024-01-19T10:04:21.928Z,3.94
2024-01-19T10:07:03.879Z,4.30
2024-01-19T10:09:43.989Z,4.43
2024-01-19T10:12:31.011Z,4.61
2024-01-19T10:15:10.551Z,4.75
2024-01-19T10:17:51.426Z,4.88
2024-01-19T10:20:30.744Z,5.07
2024-01-19T10:23:28.946Z,5.44
2024-01-19T10:26:21.312Z,5.69
2024-01-19T10:29:05.701Z,5.81
2024-01-19T10:31:46.091Z,5.96
2024-01-19T10:34:29.292Z,5.22
2024-01-19T10:37:08.769Z,4.61
2024-01-19T10:39:48.077Z,2.03
2024-01-19T10:42:27.421Z,1.73
2024-01-19T10:45:23.249Z,2.03
2024-01-19T10:48:05.820Z,2.27
2024-01-19T10:50:45.201Z,4.58
2024-01-19T10:53:25.298Z,5.15
2024-01-19T10:56:05.127Z,5.35
2024-01-19T10:58:44.403Z,4.27
2024-01-19T11:01:29.291Z,3.11
2024-01-19T11:04:09.705Z,2.77
2024-01-19T11:06:49.208Z,2.59
2024-01-19T11:09:28.770Z,2.48
2024-01-19T11:12:13.227Z,2.43
2024-01-19T11:14:53.999Z,2.28
2024-01-19T11:17:38.924Z,2.15
2024-01-19T11:20:19.449Z,2.13
2024-01-19T11:22:59.918Z,2.07
2024-01-19T11:25:55.568Z,1.99
2024-01-19T11:28:44.051Z,1.89
2024-01-19T11:31:27.595Z,1.83
2024-01-19T11:34:12.161Z,1.79
2024-01-19T11:36:56.147Z,1.69
2024-01-19T11:39:49.101Z,1.55
2024-01-19T11:42:53.658Z,1.49
2024-01-19T11:45:49.979Z,1.42
2024-01-19T11:48:48.220Z,1.35
2024-01-19T11:51:44.647Z,1.36
2024-01-19T11:54:34.610Z,1.31
2024-01-19T11:57:26.841Z,1.28
2024-01-19T12:00:08.239Z,1.28
2024-01-19T12:02:47.859Z,1.29
2024-01-19T12:05:28.248Z,1.34
2024-01-19T12:08:14.195Z,1.39
2024-01-19T12:10:53.903Z,1.35
2024-01-19T12:13:33.350Z,1.43
2024-01-19T12:16:13.729Z,1.51
2024-01-19T12:18:54.093Z,1.55
2024-01-19T12:21:34.173Z,1.62
2024-01-19T12:24:18.757Z,1.66
2024-01-19T12:26:58.321Z,1.65
2024-01-19T12:29:38.668Z,1.62
2024-01-19T12:32:19.617Z,1.57
2024-01-19T12:35:06.047Z,1.54
2024-01-19T12:37:45.991Z,1.52
2024-01-19T12:40:30.971Z,1.49
2024-01-19T12:43:12.029Z,1.48
2024-01-19T12:45:51.318Z,1.49
2024-01-19T12:48:35.344Z,1.44
2024-01-19T12:51:17.835Z,1.40
2024-01-19T12:54:02.385Z,1.34
2024-01-19T12:56:46.831Z,1.29
2024-01-19T12:59:31.016Z,1.28
2024-01-19T13:02:10.619Z,1.24
2024-01-19T13:04:49.971Z,1.18
2024-01-19T13:07:30.849Z,1.16
2024-01-19T13:10:10.993Z,1.24
2024-01-19T13:12:55.985Z,1.23
2024-01-19T13:15:39.751Z,1.22
2024-01-19T13:18:20.618Z,1.21
2024-01-19T13:20:59.992Z,1.19
2024-01-19T13:23:39.314Z,1.24
2024-01-19T13:26:27.129Z,1.32
2024-01-19T13:29:11.671Z,1.42
2024-01-19T13:31:51.301Z,1.52
2024-01-19T13:34:31.050Z,1.62
2024-01-19T13:37:10.673Z,1.71
2024-01-19T13:39:50.279Z,1.76
2024-01-19T13:42:30.029Z,1.84
2024-01-19T13:45:15.713Z,2.88
2024-01-19T13:47:55.196Z,7.99
2024-01-19T13:50:34.611Z,7.99
2024-01-19T13:53:14.000Z,8.75
2024-01-19T13:55:53.417Z,7.76
2024-01-19T13:58:32.840Z,4.58
2024-01-19T14:01:19.453Z,3.32
2024-01-19T14:04:00.105Z,2.82
2024-01-19T14:06:40.041Z,2.60
2024-01-19T14:09:20.406Z,2.30
2024-01-19T14:12:00.234Z,2.19
2024-01-19T14:14:39.913Z,2.06
2024-01-19T14:17:25.580Z,2.03
2024-01-19T14:20:04.876Z,2.00
2024-01-19T14:22:44.477Z,1.96
2024-01-19T14:25:23.814Z,1.89
2024-01-19T14:28:03.183Z,1.85
2024-01-19T14:30:43.479Z,1.79
2024-01-19T14:33:28.379Z,1.79
2024-01-19T14:36:07.963Z,1.78
2024-01-19T14:38:47.285Z,1.77
2024-01-19T14:41:26.584Z,1.83
2024-01-19T14:44:06.626Z,1.81
2024-01-19T14:46:46.166Z,1.89
2024-01-19T14:49:37.711Z,1.94
2024-01-19T14:52:18.692Z,1.98
2024-01-19T14:55:00.652Z,1.98
2024-01-19T14:57:40.065Z,1.99
2024-01-19T15:00:21.203Z,1.97
2024-01-19T15:03:01.111Z,1.95
2024-01-19T15:05:46.319Z,1.91
2024-01-19T15:08:25.628Z,1.85
2024-01-19T15:11:05.018Z,1.78
2024-01-19T15:13:45.124Z,1.78
2024-01-19T15:16:24.598Z,1.78
2024-01-19T15:19:04.058Z,1.75
2024-01-19T15:21:48.476Z,1.70
2024-01-19T15:24:27.882Z,1.67
2024-01-19T15:27:07.268Z,1.63
2024-01-19T15:29:46.577Z,1.58
2024-01-19T15:32:26.000Z,1.59
2024-01-19T15:35:05.415Z,1.59
2024-01-19T15:37:49.805Z,1.52
2024-01-19T15:40:29.161Z,1.47
2024-01-19T15:43:08.478Z,1.44
2024-01-19T15:45:48.205Z,1.43
2024-01-19T15:48:27.839Z,1.44
2024-01-19T15:51:07.172Z,1.49
2024-01-19T15:53:54.930Z,1.54
2024-01-19T15:56:37.858Z,1.53
2024-01-19T15:59:18.105Z,1.47
2024-01-19T16:01:57.918Z,1.45
2024-01-19T16:04:37.490Z,1.39
2024-01-19T16:07:16.979Z,1.35
2024-01-19T16:10:01.328Z,1.30
2024-01-19T16:12:40.636Z,1.29
2024-01-19T16:15:21.059Z,1.30
2024-01-19T16:18:00.768Z,1.31
2024-01-19T16:20:40.703Z,1.33
2024-01-19T16:23:20.076Z,1.34
2024-01-19T16:26:04.471Z,1.32
2024-01-19T16:28:43.826Z,1.31
2024-01-19T16:31:23.229Z,1.30
2024-01-19T16:34:04.603Z,1.36
2024-01-19T16:36:47.209Z,1.36
2024-01-19T16:39:26.541Z,1.32
2024-01-19T16:42:11.931Z,1.28
2024-01-19T16:44:51.300Z,1.27
2024-01-19T16:47:31.432Z,1.27
2024-01-19T16:50:11.216Z,1.24
2024-01-19T16:52:50.630Z,1.21
2024-01-19T16:55:29.978Z,1.16
2024-01-19T16:58:15.271Z,1.10
2024-01-19T17:00:54.613Z,1.06
2024-01-19T17:03:34.528Z,1.04
2024-01-19T17:06:14.441Z,1.02
2024-01-19T17:08:53.766Z,1.03
2024-01-19T17:11:33.253Z,1.04
2024-01-19T17:14:17.750Z,1.04
2024-01-19T17:16:57.110Z,1.03
2024-01-19T17:19:36.432Z,1.03
2024-01-19T17:22:15.746Z,1.02
2024-01-19T17:24:55.548Z,1.03
2024-01-19T17:27:34.869Z,1.02
2024-01-19T17:30:21.969Z,0.98
2024-01-19T17:33:01.568Z,1.03
2024-01-19T17:35:41.018Z,1.07
2024-01-19T17:38:20.615Z,1.09
2024-01-19T17:41:00.005Z,1.08
2024-01-19T17:43:40.396Z,1.08
2024-01-19T17:46:25.403Z,1.06
2024-01-19T17:49:05.007Z,1.11
2024-01-19T17:51:44.376Z,1.16
2024-01-19T17:54:24.283Z,1.18
2024-01-19T17:57:03.765Z,1.20
2024-01-19T17:59:45.095Z,1.22
2024-01-19T18:02:29.406Z,1.30
2024-01-19T18:05:08.977Z,1.24
2024-01-19T18:07:49.125Z,1.16
2024-01-19T18:10:29.095Z,1.15
2024-01-19T18:13:08.984Z,1.13
2024-01-19T18:15:48.823Z,1.10
2024-01-19T18:18:36.378Z,1.11
2024-01-19T18:21:16.736Z,1.10
2024-01-19T18:23:56.490Z,1.07
2024-01-19T18:26:37.034Z,1.04
2024-01-19T18:29:16.393Z,0.99
2024-01-19T18:31:56.358Z,0.89
2024-01-19T18:34:40.729Z,0.82
2024-01-19T18:37:20.192Z,0.86
2024-01-19T18:40:00.695Z,0.87
2024-01-19T18:42:40.923Z,0.82
2024-01-19T18:45:21.257Z,0.77
2024-01-19T18:48:01.071Z,0.77
2024-01-19T18:50:45.485Z,0.80
2024-01-19T18:53:24.831Z,0.77
2024-01-19T18:56:04.215Z,0.71
2024-01-19T18:58:45.411Z,0.62
2024-01-19T19:01:24.846Z,0.45
2024-01-19T19:04:04.352Z,0.37
2024-01-19T19:06:49.036Z,0.29
2024-01-19T19:09:30.153Z,0.13
2024-01-19T19:12:09.469Z,-0.02
2024-01-19T19:14:48.952Z,-0.07
2024-01-19T19:17:28.781Z,-0.10
2024-01-19T19:20:09.583Z,-0.04
2024-01-19T19:22:54.042Z,-0.02
2024-01-19T19:25:34.840Z,0.01
2024-01-19T19:28:14.692Z,0.03
2024-01-19T19:30:53.974Z,0.04
2024-01-19T19:33:33.576Z,0.08
2024-01-19T19:36:14.859Z,0.12
2024-01-19T19:39:00.186Z,0.12
2024-01-19T19:41:39.452Z,0.16
2024-01-19T19:44:19.194Z,0.16
2024-01-19T19:46:58.616Z,0.17
2024-01-19T19:49:39.324Z,0.13
2024-01-19T19:52:18.720Z,0.08
2024-01-19T19:55:03.179Z,0.02
2024-01-19T19:57:43.419Z,-0.08
2024-01-19T20:00:23.525Z,-0.16
2024-01-19T20:03:02.826Z,-0.22
2024-01-19T20:05:42.199Z,-0.23
2024-01-19T20:08:22.384Z,-0.24
2024-01-19T20:11:07.863Z,-0.26
2024-01-19T20:13:47.488Z,-0.25
2024-01-19T20:16:28.101Z,-0.28
2024-01-19T20:19:07.644Z,-0.27
2024-01-19T20:21:46.999Z,-0.26
2024-01-19T20:24:26.314Z,-0.20
2024-01-19T20:27:11.942Z,-0.22
2024-01-19T20:29:53.676Z,-0.19
2024-01-19T20:32:33.231Z,-0.18
2024-01-19T20:35:13.549Z,-0.18
2024-01-19T20:37:55.830Z,-0.01
2024-01-19T20:40:35.975Z,0.08
2024-01-19T20:43:20.368Z,0.09
2024-01-19T20:45:59.654Z,0.06
2024-01-19T20:48:39.073Z,0.03
2024-01-19T20:51:18.629Z,0.00
2024-01-19T20:53:57.948Z,-0.03
2024-01-19T20:56:37.401Z,-0.05
2024-01-19T20:59:23.032Z,-0.04
2024-01-19T21:02:05.282Z,-0.04
2024-01-19T21:04:44.882Z,-0.04
2024-01-19T21:07:24.384Z,-0.01
2024-01-19T21:10:03.982Z,0.02
2024-01-19T21:12:44.801Z,0.01
2024-01-19T21:15:31.085Z,0.01
2024-01-19T21:18:11.062Z,-0.03
2024-01-19T21:20:50.665Z,-0.08
2024-01-19T21:23:30.053Z,-0.13
2024-01-19T21:26:09.704Z,-0.19
2024-01-19T21:28:49.034Z,-0.23
2024-01-19T21:31:33.599Z,-0.27
2024-01-19T21:34:12.945Z,-0.28
2024-01-19T21:36:52.317Z,-0.34
2024-01-19T21:39:31.788Z,-0.40
2024-01-19T21:42:11.715Z,-0.45
2024-01-19T21:44:51.532Z,-0.52
2024-01-19T21:47:36.124Z,-0.57
2024-01-19T21:50:17.016Z,-0.59
2024-01-19T21:52:57.037Z,-0.66
2024-01-19T21:55:36.921Z,-0.69
2024-01-19T21:58:16.855Z,-0.69
2024-01-19T22:00:56.659Z,-0.70
2024-01-19T22:03:41.206Z,-0.72
2024-01-19T22:06:20.700Z,-0.74
2024-01-19T22:09:00.316Z,-0.78
2024-01-19T22:11:47.073Z,-0.79
2024-01-19T22:14:33.743Z,-0.84
2024-01-19T22:17:13.188Z,-0.85
2024-01-19T22:19:58.349Z,-0.84
2024-01-19T22:22:37.690Z,-0.77
2024-01-19T22:25:17.320Z,-0.75
2024-01-19T22:27:56.660Z,-0.72
2024-01-19T22:30:37.727Z,-0.73
2024-01-19T22:33:17.127Z,-0.76
2024-01-19T22:36:07.736Z,-0.79
2024-01-19T22:38:54.383Z,-0.80
2024-01-19T22:41:34.300Z,-0.84
2024-01-19T22:44:16.097Z,-0.85
2024-01-19T22:46:55.753Z,-0.87
2024-01-19T22:49:35.264Z,-0.88
2024-01-19T22:52:22.128Z,-0.90
2024-01-19T22:55:02.018Z,-0.92
2024-01-19T22:57:41.635Z,-0.94
2024-01-19T23:00:25.154Z,-0.90
2024-01-19T23:03:04.502Z,-0.91
2024-01-19T23:05:43.859Z,-0.97
2024-01-19T23:08:28.379Z,-1.10
2024-01-19T23:11:07.781Z,-1.14
2024-01-19T23:13:47.252Z,-1.14
2024-01-19T23:16:26.982Z,-1.22
2024-01-19T23:19:11.265Z,-1.22
2024-01-19T23:21:56.612Z,-1.29
2024-01-19T23:24:41.305Z,-1.29
2024-01-19T23:27:20.997Z,-1.29
2024-01-19T23:30:00.507Z,-1.31
2024-01-19T23:32:40.246Z,-1.35
2024-01-19T23:35:19.719Z,-1.46
2024-01-19T23:37:59.409Z,-1.50
2024-01-19T23:40:43.844Z,-1.54
2024-01-19T23:43:23.588Z,-1.57
2024-01-19T23:46:02.904Z,-1.64
2024-01-19T23:48:42.216Z,-1.78
2024-01-19T23:51:21.654Z,-2.15
2024-01-19T23:54:01.562Z,-2.21
2024-01-19T23:56:45.892Z,-2.31
2024-01-19T23:59:25.189Z,-2.46
